Time;durP1;ratioP1;P1;durP2;ratioP2;P2;SDS_P1;SDS_P2;PMS_P1;PMS_P2;Temp;Humidity;BMP_temperature;BMP_pressure;BME280_temperature;BME280_humidity;BME280_pressure;Samples;Min_cycle;Max_cycle;Signal;HPM_P1;HPM_P2
2021/04/14 00:00:08;;;;;;;7.88;6.43;;;5.70;99.90;;;;;;4899028;29;20546;-84
2021/04/14 00:02:35;;;;;;;7.72;6.40;;;5.50;99.90;;;;;;4898686;29;20125;-84
2021/04/14 00:05:01;;;;;;;7.68;5.50;;;5.40;99.90;;;;;;4898762;29;20131;-84
2021/04/14 00:07:26;;;;;;;8.43;6.35;;;5.50;99.90;;;;;;4898683;29;20566;-84
2021/04/14 00:09:52;;;;;;;6.78;5.90;;;5.40;99.90;;;;;;4898887;29;20025;-84
2021/04/14 00:12:18;;;;;;;8.90;6.50;;;5.40;99.90;;;;;;4898503;29;20418;-84
2021/04/14 00:14:44;;;;;;;7.18;6.32;;;5.20;99.90;;;;;;4898367;29;20025;-83
2021/04/14 00:17:10;;;;;;;9.25;6.40;;;5.20;99.90;;;;;;4899117;29;20028;-84
2021/04/14 00:19:35;;;;;;;7.93;6.60;;;5.20;99.90;;;;;;4898663;29;20076;-83
2021/04/14 00:22:01;;;;;;;7.70;5.82;;;5.20;99.90;;;;;;4898444;29;20036;-84
2021/04/14 00:24:27;;;;;;;7.65;6.03;;;5.60;99.90;;;;;;4897857;29;20028;-84
2021/04/14 00:26:53;;;;;;;8.38;6.20;;;5.10;99.90;;;;;;4897995;29;20029;-83
2021/04/14 00:29:18;;;;;;;7.20;5.70;;;5.10;99.90;;;;;;4897938;29;20047;-84
2021/04/14 00:31:44;;;;;;;7.15;6.07;;;5.10;99.90;;;;;;4898351;29;20028;-84
2021/04/14 00:34:17;;;;;;;7.32;6.50;;;5.10;99.90;;;;;;4899003;29;20173;-83
2021/04/14 00:36:45;;;;;;;7.05;6.05;;;5.20;99.90;;;;;;4896277;29;20035;-84
2021/04/14 00:39:18;;;;;;;8.05;6.10;;;5.10;99.90;;;;;;4897982;29;20085;-83
2021/04/14 00:41:45;;;;;;;7.90;6.07;;;5.10;99.90;;;;;;4897850;29;20442;-84
2021/04/14 00:44:11;;;;;;;7.28;5.78;;;4.90;99.90;;;;;;4898133;29;20056;-84
2021/04/14 00:46:37;;;;;;;7.63;6.05;;;4.90;99.90;;;;;;4898398;29;20033;-83
2021/04/14 00:49:03;;;;;;;8.07;6.25;;;5.00;99.90;;;;;;4898729;29;20505;-84
2021/04/14 00:51:29;;;;;;;8.48;6.22;;;5.00;99.90;;;;;;4897493;29;20036;-84
2021/04/14 00:53:55;;;;;;;7.13;5.82;;;4.90;99.90;;;;;;4897569;29;20048;-84
2021/04/14 00:56:21;;;;;;;6.88;5.88;;;4.60;99.90;;;;;;4897527;29;20506;-84
2021/04/14 00:58:46;;;;;;;7.13;6.38;;;4.70;99.90;;;;;;4897990;29;20104;-84
2021/04/14 01:01:13;;;;;;;6.63;5.55;;;4.50;99.90;;;;;;4898341;29;20430;-83
2021/04/14 01:03:39;;;;;;;7.75;6.38;;;4.50;99.90;;;;;;4897464;29;20051;-84
2021/04/14 01:06:10;;;;;;;8.02;6.38;;;4.70;99.90;;;;;;4897595;29;20372;-84
2021/04/14 01:08:36;;;;;;;9.48;7.05;;;4.80;99.90;;;;;;4897119;29;20033;-83
2021/04/14 01:11:04;;;;;;;8.40;6.88;;;4.40;99.90;;;;;;4882868;29;20028;-84
2021/04/14 01:13:29;;;;;;;7.70;6.65;;;4.30;99.90;;;;;;4898429;29;20055;-84
2021/04/14 01:15:55;;;;;;;8.48;6.95;;;4.40;99.90;;;;;;4897409;29;20067;-83
2021/04/14 01:18:25;;;;;;;7.72;6.47;;;4.30;99.90;;;;;;4896917;29;20028;-84
2021/04/14 01:20:51;;;;;;;9.80;6.80;;;4.10;99.90;;;;;;4897002;29;20041;-84
2021/04/14 01:23:18;;;;;;;7.65;6.13;;;4.30;99.90;;;;;;4897053;29;20418;-84
2021/04/14 01:25:44;;;;;;;9.32;6.28;;;4.40;99.90;;;;;;4897830;29;20029;-84
2021/04/14 01:28:13;;;;;;;7.53;6.50;;;4.30;99.90;;;;;;4897647;29;20087;-83
2021/04/14 01:30:40;;;;;;;7.30;6.25;;;4.30;99.90;;;;;;4896196;29;20037;-84
2021/04/14 01:33:07;;;;;;;8.07;6.65;;;4.30;99.90;;;;;;4896994;29;20028;-84
2021/04/14 01:35:33;;;;;;;8.43;6.70;;;4.20;99.90;;;;;;4884896;29;20017;-83
2021/04/14 01:37:59;;;;;;;7.55;6.28;;;4.10;99.90;;;;;;4897203;29;20044;-84
2021/04/14 01:40:26;;;;;;;9.90;6.88;;;4.10;99.90;;;;;;4897721;29;20031;-84
2021/04/14 01:42:53;;;;;;;9.43;7.22;;;4.20;99.90;;;;;;4897262;29;20025;-84
2021/04/14 01:45:24;;;;;;;7.72;6.90;;;4.30;99.90;;;;;;4897024;29;20077;-83
2021/04/14 01:47:49;;;;;;;10.63;6.60;;;4.10;99.90;;;;;;4896889;29;20043;-84
2021/04/14 01:50:15;;;;;;;7.43;6.63;;;4.00;99.90;;;;;;4895964;29;20032;-84
2021/04/14 01:52:41;;;;;;;7.55;6.72;;;4.20;99.90;;;;;;4896728;29;20044;-84
2021/04/14 01:55:08;;;;;;;7.80;6.43;;;3.80;99.90;;;;;;4896973;29;20044;-84
2021/04/14 01:57:33;;;;;;;8.90;7.45;;;3.90;99.90;;;;;;4897109;29;20035;-84
2021/04/14 01:59:59;;;;;;;7.93;6.93;;;4.00;99.90;;;;;;4896607;29;20032;-84
2021/04/14 02:02:25;;;;;;;8.02;7.20;;;3.90;99.90;;;;;;4895752;29;20032;-83
2021/04/14 02:04:51;;;;;;;7.80;6.97;;;4.30;99.90;;;;;;4895900;29;20044;-83
2021/04/14 02:07:17;;;;;;;7.97;7.18;;;3.50;99.90;;;;;;4896886;29;20028;-84
2021/04/14 02:09:42;;;;;;;9.40;6.82;;;3.50;99.90;;;;;;4896411;29;20036;-84
2021/04/14 02:12:09;;;;;;;8.75;6.95;;;3.40;99.90;;;;;;4895974;29;20040;-83
2021/04/14 02:14:35;;;;;;;8.40;6.57;;;3.50;99.90;;;;;;4896845;29;20389;-83
2021/04/14 02:17:01;;;;;;;9.10;6.57;;;3.50;99.90;;;;;;4896532;29;20111;-83
2021/04/14 02:19:27;;;;;;;8.38;6.72;;;3.50;99.90;;;;;;4896401;29;20489;-84
2021/04/14 02:21:53;;;;;;;7.85;6.70;;;3.60;99.90;;;;;;4896393;29;20043;-84
2021/04/14 02:24:19;;;;;;;9.25;6.53;;;3.60;99.90;;;;;;4896251;29;20560;-83
2021/04/14 02:26:45;;;;;;;7.72;6.68;;;3.50;99.90;;;;;;4896174;29;20115;-83
2021/04/14 02:29:10;;;;;;;8.75;6.65;;;3.60;99.90;;;;;;4896311;29;20041;-84
2021/04/14 02:31:36;;;;;;;7.75;6.65;;;3.60;99.90;;;;;;4896941;29;20455;-84
2021/04/14 02:34:08;;;;;;;9.00;7.45;;;3.50;99.90;;;;;;4895727;29;20061;-84
2021/04/14 02:36:34;;;;;;;9.80;6.70;;;3.50;99.90;;;;;;4896477;29;20331;-83
2021/04/14 02:39:00;;;;;;;8.43;6.95;;;3.70;99.90;;;;;;4895217;29;20103;-84
2021/04/14 02:41:25;;;;;;;8.13;7.28;;;4.00;99.90;;;;;;4895797;29;20071;-84
2021/04/14 02:43:53;;;;;;;8.43;6.82;;;3.40;99.90;;;;;;4894795;29;20474;-83
2021/04/14 02:46:20;;;;;;;8.35;7.22;;;3.50;99.90;;;;;;4896599;29;20036;-84
2021/04/14 02:48:47;;;;;;;8.30;7.32;;;3.50;99.90;;;;;;4894812;29;20533;-84
2021/04/14 02:51:13;;;;;;;9.20;6.93;;;3.50;99.90;;;;;;4895508;29;20032;-83
2021/04/14 02:53:38;;;;;;;7.85;7.03;;;3.50;99.90;;;;;;4896051;29;20052;-83
2021/04/14 02:56:04;;;;;;;8.25;7.03;;;3.40;99.90;;;;;;4895842;29;20032;-83
2021/04/14 02:58:30;;;;;;;9.77;7.07;;;3.50;99.90;;;;;;4892623;29;20025;-83
2021/04/14 03:00:55;;;;;;;7.80;7.00;;;3.40;99.90;;;;;;4895500;29;20033;-84
2021/04/14 03:03:22;;;;;;;9.40;7.25;;;3.40;99.90;;;;;;4895444;29;20490;-84
2021/04/14 03:05:49;;;;;;;8.80;7.07;;;3.30;99.90;;;;;;4895259;29;20025;-83
2021/04/14 03:08:15;;;;;;;7.60;6.80;;;3.40;99.90;;;;;;4895841;29;20035;-83
2021/04/14 03:10:40;;;;;;;7.95;6.68;;;3.40;99.90;;;;;;4896073;29;20119;-83
2021/04/14 03:13:07;;;;;;;8.88;6.85;;;3.40;99.90;;;;;;4896035;29;20490;-84
2021/04/14 03:15:36;;;;;;;8.55;7.20;;;3.30;99.90;;;;;;4895495;29;20028;-83
2021/04/14 03:18:02;;;;;;;8.07;6.80;;;3.30;99.90;;;;;;4895107;29;20029;-84
2021/04/14 03:20:28;;;;;;;8.85;7.13;;;3.30;99.90;;;;;;4894963;29;20029;-84
2021/04/14 03:22:55;;;;;;;7.90;7.10;;;3.60;99.90;;;;;;4895706;29;20041;-84
2021/04/14 03:25:24;;;;;;;9.40;6.95;;;3.30;99.90;;;;;;4896539;29;20131;-84
2021/04/14 03:27:50;;;;;;;8.10;7.20;;;3.10;99.90;;;;;;4895624;29;20494;-84
2021/04/14 03:30:16;;;;;;;9.52;7.30;;;3.20;99.90;;;;;;4895375;29;20318;-84
2021/04/14 03:32:42;;;;;;;10.00;7.78;;;3.20;99.90;;;;;;4895650;29;20133;-84
2021/04/14 03:35:09;;;;;;;9.23;7.68;;;3.20;99.90;;;;;;4895248;29;20040;-83
2021/04/14 03:37:35;;;;;;;10.45;7.65;;;3.00;99.90;;;;;;4895878;29;20116;-83
2021/04/14 03:40:01;;;;;;;9.93;8.13;;;3.10;99.90;;;;;;4910869;29;20119;-83
2021/04/14 03:42:26;;;;;;;10.73;7.63;;;3.10;99.90;;;;;;4895072;29;20024;-83
2021/04/14 03:44:55;;;;;;;8.48;7.57;;;2.90;99.90;;;;;;4895257;29;20052;-83
2021/04/14 03:47:21;;;;;;;8.95;6.93;;;3.00;99.90;;;;;;4895576;29;20012;-84
2021/04/14 03:49:50;;;;;;;9.40;7.90;;;2.90;99.90;;;;;;4895116;29;20498;-83
2021/04/14 03:52:15;;;;;;;10.20;8.27;;;2.80;99.90;;;;;;4895793;29;20541;-84
2021/04/14 03:54:41;;;;;;;10.88;9.70;;;2.90;99.90;;;;;;4897465;29;20056;-83
2021/04/14 03:57:06;;;;;;;10.48;8.68;;;3.00;99.90;;;;;;4898873;29;20383;-83
2021/04/14 03:59:32;;;;;;;10.32;8.25;;;3.30;99.90;;;;;;4898628;29;20035;-84
2021/04/14 04:01:58;;;;;;;10.57;9.15;;;3.10;99.90;;;;;;4898860;29;20036;-83
2021/04/14 04:04:23;;;;;;;11.73;9.55;;;3.00;99.90;;;;;;4899264;29;20092;-83
2021/04/14 04:06:49;;;;;;;10.60;9.52;;;2.80;99.90;;;;;;4898464;29;20024;-84
2021/04/14 04:09:15;;;;;;;11.05;8.35;;;3.00;99.90;;;;;;4898767;29;20085;-84
2021/04/14 04:11:40;;;;;;;10.75;9.20;;;3.00;99.90;;;;;;4898389;29;20035;-83
2021/04/14 04:14:06;;;;;;;9.88;8.88;;;3.00;99.90;;;;;;4898397;29;20310;-83
2021/04/14 04:16:31;;;;;;;10.98;9.45;;;3.00;99.90;;;;;;4899436;29;20052;-83
2021/04/14 04:18:57;;;;;;;10.40;8.80;;;3.00;99.90;;;;;;4898526;29;20032;-83
2021/04/14 04:21:23;;;;;;;11.88;8.82;;;3.00;99.90;;;;;;4897946;29;20036;-83
2021/04/14 04:23:50;;;;;;;11.80;9.05;;;3.10;99.90;;;;;;4898844;29;20127;-82
2021/04/14 04:26:16;;;;;;;10.98;9.10;;;3.00;99.90;;;;;;4897919;29;20029;-83
2021/04/14 04:28:41;;;;;;;9.50;8.15;;;3.00;99.90;;;;;;4898183;29;20025;-84
2021/04/14 04:31:07;;;;;;;11.23;9.02;;;2.90;99.90;;;;;;4897935;29;20047;-83
2021/04/14 04:33:33;;;;;;;9.90;8.43;;;2.80;99.90;;;;;;4898519;29;20381;-83
2021/04/14 04:35:59;;;;;;;13.13;10.50;;;2.60;99.90;;;;;;4898591;29;20533;-84
2021/04/14 04:38:25;;;;;;;14.93;10.20;;;2.60;99.90;;;;;;4898332;29;20029;-83
2021/04/14 04:40:51;;;;;;;9.93;8.60;;;2.70;99.90;;;;;;4898171;29;20060;-83
2021/04/14 04:43:17;;;;;;;10.68;8.32;;;2.70;99.90;;;;;;4898201;29;20116;-83
2021/04/14 04:45:43;;;;;;;10.70;8.27;;;2.70;99.90;;;;;;4897320;29;20036;-83
2021/04/14 04:48:09;;;;;;;11.15;7.97;;;2.70;99.90;;;;;;4898354;29;20383;-84
2021/04/14 04:50:36;;;;;;;9.75;7.93;;;2.80;99.90;;;;;;4898353;29;20149;-83
2021/04/14 04:53:12;;;;;;;9.65;8.55;;;2.80;99.90;;;;;;4897877;29;20625;-83
2021/04/14 04:55:41;;;;;;;10.30;8.32;;;2.70;99.90;;;;;;4898643;29;20029;-84
2021/04/14 04:58:07;;;;;;;10.80;8.60;;;2.60;99.90;;;;;;4897998;29;20024;-83
2021/04/14 05:00:33;;;;;;;8.98;7.45;;;2.70;99.90;;;;;;4897289;29;20516;-82
2021/04/14 05:02:59;;;;;;;9.52;8.07;;;2.90;99.90;;;;;;4897680;29;20076;-84
2021/04/14 05:05:28;;;;;;;10.88;8.70;;;2.90;99.90;;;;;;4896830;29;20107;-84
2021/04/14 05:07:53;;;;;;;10.23;8.23;;;2.90;99.90;;;;;;4897066;29;20108;-83
2021/04/14 05:10:20;;;;;;;11.07;8.13;;;2.90;99.90;;;;;;4898077;29;20120;-83
2021/04/14 05:12:50;;;;;;;9.05;8.02;;;3.10;99.90;;;;;;4896992;29;20029;-83
2021/04/14 05:15:23;;;;;;;9.23;8.32;;;3.10;99.90;;;;;;4897202;29;20258;-83
2021/04/14 05:17:49;;;;;;;9.18;8.23;;;3.00;99.90;;;;;;4898181;29;20067;-83
2021/04/14 05:20:16;;;;;;;9.93;8.50;;;3.10;99.90;;;;;;4897562;29;20025;-83
2021/04/14 05:22:44;;;;;;;11.25;8.65;;;3.20;99.90;;;;;;4897377;29;20578;-83
2021/04/14 05:25:10;;;;;;;9.45;8.45;;;3.30;99.90;;;;;;4897520;29;20048;-83
2021/04/14 05:27:37;;;;;;;9.00;7.97;;;3.30;99.90;;;;;;4896992;29;20032;-83
2021/04/14 05:30:04;;;;;;;10.05;8.30;;;3.30;99.90;;;;;;4896751;29;20120;-83
2021/04/14 05:32:29;;;;;;;10.07;8.38;;;3.40;99.90;;;;;;4897853;29;20030;-83
2021/04/14 05:34:55;;;;;;;13.63;8.68;;;3.50;99.90;;;;;;4896798;29;20501;-84
2021/04/14 05:37:20;;;;;;;11.40;8.35;;;3.50;99.90;;;;;;4896982;29;20050;-83
2021/04/14 05:39:46;;;;;;;14.10;8.30;;;3.60;99.90;;;;;;4896628;29;20028;-83
2021/04/14 05:42:12;;;;;;;10.73;8.70;;;3.70;99.90;;;;;;4896200;29;20036;-83
2021/04/14 05:44:37;;;;;;;11.43;9.20;;;3.70;99.90;;;;;;4897179;29;20047;-83
2021/04/14 05:47:03;;;;;;;12.85;8.30;;;4.50;99.90;;;;;;4897088;29;20032;-83
2021/04/14 05:49:29;;;;;;;10.40;8.48;;;4.00;99.90;;;;;;4897189;29;20584;-83
2021/04/14 05:51:54;;;;;;;14.07;9.15;;;4.10;99.90;;;;;;4896536;29;20032;-83
2021/04/14 05:54:20;;;;;;;9.68;8.50;;;4.00;99.90;;;;;;4896960;29;20421;-83
2021/04/14 05:56:45;;;;;;;10.77;9.02;;;4.00;99.90;;;;;;4895585;29;20028;-83
2021/04/14 05:59:12;;;;;;;9.60;8.18;;;3.90;99.90;;;;;;4896986;29;20413;-84
2021/04/14 06:01:41;;;;;;;11.52;9.23;;;4.10;99.90;;;;;;4896926;29;20053;-83
2021/04/14 06:04:07;;;;;;;10.35;9.25;;;4.10;99.90;;;;;;4895762;29;20044;-88
2021/04/14 06:06:33;;;;;;;11.82;8.80;;;4.10;99.90;;;;;;4896908;29;20157;-82
2021/04/14 06:08:58;;;;;;;12.18;9.43;;;4.10;99.90;;;;;;4896351;29;20036;-84
2021/04/14 06:11:24;;;;;;;15.75;9.13;;;4.10;99.90;;;;;;4896114;29;20012;-86
2021/04/14 06:13:49;;;;;;;13.85;9.07;;;4.50;99.90;;;;;;4896748;29;20123;-85
2021/04/14 06:16:16;;;;;;;10.82;9.18;;;4.80;99.90;;;;;;4896058;29;20024;-84
2021/04/14 06:18:43;;;;;;;12.98;9.27;;;4.90;99.90;;;;;;4895894;29;20042;-83
2021/04/14 06:21:09;;;;;;;13.85;9.63;;;5.10;99.90;;;;;;4896334;29;20107;-83
2021/04/14 06:23:34;;;;;;;13.95;9.90;;;5.00;99.90;;;;;;4896574;29;20044;-83
2021/04/14 06:28:26;;;;;;;11.60;9.85;;;4.60;99.90;;;;;;4896493;29;20423;-83
2021/04/14 06:30:53;;;;;;;13.95;10.35;;;4.50;99.90;;;;;;4895908;29;20033;-83
2021/04/14 06:33:20;;;;;;;13.18;10.30;;;4.50;99.90;;;;;;4896062;29;20589;-84
2021/04/14 06:35:47;;;;;;;15.98;10.88;;;4.70;99.90;;;;;;4895791;29;20333;-82
2021/04/14 06:38:19;;;;;;;14.48;10.27;;;4.80;99.90;;;;;;4896033;29;20024;-84
2021/04/14 06:43:46;;;;;;;11.43;10.23;;;4.80;99.90;;;;;;4895116;29;20036;-83
2021/04/14 06:46:29;;;;;;;11.75;9.73;;;4.90;99.90;;;;;;4896246;29;20033;-82
2021/04/14 06:49:11;;;;;;;10.50;9.50;;;5.20;99.90;;;;;;4895987;29;20049;-82
2021/04/14 06:51:46;;;;;;;11.40;9.95;;;5.20;99.90;;;;;;4895774;29;20033;-82
2021/04/14 06:54:22;;;;;;;13.68;9.57;;;5.30;99.90;;;;;;4895442;29;20048;-82
2021/04/14 06:56:59;;;;;;;10.90;9.50;;;5.50;99.90;;;;;;4896180;29;20101;-81
2021/04/14 06:59:28;;;;;;;11.00;9.73;;;5.60;99.90;;;;;;4896005;29;20043;-82
2021/04/14 07:02:01;;;;;;;12.90;9.77;;;5.70;99.90;;;;;;4896034;29;20029;-82
2021/04/14 07:04:45;;;;;;;12.38;10.18;;;5.90;99.90;;;;;;4896311;29;20048;-83
2021/04/14 07:07:20;;;;;;;19.17;14.63;;;5.90;99.90;;;;;;4895627;29;20029;-83
2021/04/14 07:09:47;;;;;;;12.25;10.02;;;5.60;99.90;;;;;;4895041;29;20037;-82
2021/04/14 07:12:19;;;;;;;13.75;11.75;;;5.90;99.90;;;;;;4895456;29;20553;-83
2021/04/14 07:14:46;;;;;;;13.10;10.98;;;5.90;99.90;;;;;;4895007;29;20660;-84
2021/04/14 07:17:15;;;;;;;11.98;10.18;;;5.80;99.90;;;;;;4895373;29;20041;-81
2021/04/14 07:20:12;;;;;;;12.75;10.75;;;5.90;99.90;;;;;;4895575;29;20424;-82
2021/04/14 07:23:13;;;;;;;11.95;10.75;;;6.10;99.90;;;;;;4892294;29;20536;-81
2021/04/14 07:25:56;;;;;;;12.90;10.70;;;6.10;99.90;;;;;;4838443;29;20256;-81
2021/04/14 07:28:50;;;;;;;13.68;10.73;;;6.00;99.90;;;;;;4856865;29;20114;-83
2021/04/14 07:31:35;;;;;;;13.52;11.38;;;6.20;99.90;;;;;;4858403;29;20538;-83
2021/04/14 07:34:48;;;;;;;15.73;10.55;;;6.30;99.90;;;;;;4860171;29;20108;-83
2021/04/14 07:37:20;;;;;;;13.27;10.88;;;6.20;99.90;;;;;;4804949;29;20035;-83
2021/04/14 07:39:51;;;;;;;16.13;14.43;;;6.40;99.90;;;;;;4804982;29;20031;-83
2021/04/14 07:42:33;;;;;;;14.95;12.18;;;6.30;99.90;;;;;;4804774;29;20054;-83
2021/04/14 07:45:15;;;;;;;14.07;11.68;;;6.30;99.90;;;;;;4805016;29;20582;-83
2021/04/14 07:47:55;;;;;;;12.50;10.52;;;6.70;99.90;;;;;;4804769;29;20043;-83
2021/04/14 07:50:29;;;;;;;13.57;11.43;;;6.60;99.90;;;;;;4806377;29;20110;-83
2021/04/14 07:52:57;;;;;;;13.32;10.55;;;6.80;99.90;;;;;;4804447;29;20071;-83
2021/04/14 07:55:33;;;;;;;15.27;12.70;;;6.70;99.90;;;;;;4804986;29;20050;-83
2021/04/14 07:58:14;;;;;;;16.90;13.98;;;6.20;99.90;;;;;;4804533;29;20035;-83
2021/04/14 08:00:43;;;;;;;15.13;12.70;;;6.30;99.90;;;;;;4808817;29;20054;-83
2021/04/14 08:03:15;;;;;;;16.90;14.95;;;6.80;99.90;;;;;;4833290;29;20022;-83
2021/04/14 08:05:41;;;;;;;13.63;11.55;;;6.60;99.90;;;;;;4845274;29;20060;-82
2021/04/14 08:08:20;;;;;;;14.40;11.93;;;6.70;99.90;;;;;;4871833;29;20497;-83
2021/04/14 08:11:06;;;;;;;13.20;11.18;;;6.60;99.90;;;;;;4899075;29;20045;-83
2021/04/14 08:13:38;;;;;;;12.68;10.68;;;6.70;99.90;;;;;;4895634;29;20032;-83
2021/04/14 08:16:17;;;;;;;13.23;10.88;;;6.90;99.90;;;;;;4898487;29;20036;-82
2021/04/14 08:19:01;;;;;;;13.15;11.15;;;7.20;99.90;;;;;;4898464;29;20032;-83
2021/04/14 08:21:51;;;;;;;14.43;11.43;;;7.00;99.90;;;;;;4898000;29;20029;-83
2021/04/14 08:24:32;;;;;;;15.68;11.65;;;7.00;99.90;;;;;;4897270;29;20650;-83
2021/04/14 08:27:11;;;;;;;12.98;11.57;;;7.10;99.90;;;;;;4898286;29;20401;-82
2021/04/14 08:29:37;;;;;;;13.07;11.57;;;7.20;99.90;;;;;;4898203;29;20528;-83
2021/04/14 08:32:11;;;;;;;13.18;11.18;;;7.50;99.90;;;;;;4881030;29;20141;-83
2021/04/14 08:34:39;;;;;;;14.63;11.48;;;7.20;99.90;;;;;;4895422;29;20044;-83
2021/04/14 08:37:08;;;;;;;14.02;11.27;;;7.60;99.90;;;;;;4897976;29;20064;-86
2021/04/14 08:39:36;;;;;;;12.52;11.23;;;7.60;99.90;;;;;;4897808;29;20033;-84
2021/04/14 08:42:11;;;;;;;16.42;13.13;;;8.30;99.90;;;;;;4898022;29;20024;-83
2021/04/14 08:44:41;;;;;;;14.77;11.80;;;8.00;99.90;;;;;;4897922;29;20569;-83
2021/04/14 08:47:13;;;;;;;13.52;11.32;;;8.30;99.90;;;;;;4883628;29;20024;-83
2021/04/14 08:49:39;;;;;;;12.25;10.50;;;8.60;99.90;;;;;;4898429;29;20328;-84
2021/04/14 08:52:07;;;;;;;12.63;11.32;;;8.40;99.90;;;;;;4898169;29;20032;-84
2021/04/14 08:54:35;;;;;;;13.30;11.50;;;8.50;99.90;;;;;;4897598;29;20139;-83
2021/04/14 08:57:01;;;;;;;12.48;10.75;;;8.80;99.90;;;;;;4897651;29;20028;-84
2021/04/14 08:59:27;;;;;;;12.00;10.80;;;8.60;99.90;;;;;;4897016;29;20509;-83
2021/04/14 09:01:54;;;;;;;10.65;9.55;;;8.80;99.90;;;;;;4897960;29;20482;-84
2021/04/14 09:04:21;;;;;;;14.57;12.85;;;8.60;99.90;;;;;;4898207;29;20486;-84
2021/04/14 09:06:49;;;;;;;12.02;10.80;;;9.20;99.90;;;;;;4897416;29;20506;-84
2021/04/14 09:09:17;;;;;;;12.32;11.02;;;9.20;99.90;;;;;;4898009;29;20021;-84
2021/04/14 09:11:44;;;;;;;12.70;11.45;;;8.70;99.90;;;;;;4897359;29;20037;-83
2021/04/14 09:14:23;;;;;;;12.35;11.05;;;8.80;99.90;;;;;;4897330;29;20065;-84
2021/04/14 09:16:52;;;;;;;14.25;10.93;;;9.00;99.90;;;;;;4897936;29;20020;-84
2021/04/14 09:19:39;;;;;;;13.18;11.75;;;8.80;99.90;;;;;;4897782;29;20056;-84
2021/04/14 09:22:20;;;;;;;12.18;10.70;;;9.20;99.90;;;;;;4897624;29;20032;-84
2021/04/14 09:24:49;;;;;;;12.73;10.88;;;8.80;99.90;;;;;;4897189;29;20133;-84
2021/04/14 09:27:32;;;;;;;13.13;10.57;;;8.80;99.90;;;;;;4896196;29;20079;-84
2021/04/14 09:30:16;;;;;;;12.70;10.98;;;8.80;99.90;;;;;;4888698;29;20516;-84
2021/04/14 09:32:48;;;;;;;11.43;10.15;;;8.80;99.90;;;;;;4887069;29;20403;-84
2021/04/14 09:35:14;;;;;;;11.93;10.63;;;9.20;99.90;;;;;;4897611;29;20036;-84
2021/04/14 09:37:39;;;;;;;13.10;10.88;;;9.10;99.90;;;;;;4897377;29;20096;-84
2021/04/14 09:40:06;;;;;;;11.85;10.30;;;9.00;99.90;;;;;;4897295;29;20036;-84
2021/04/14 09:42:38;;;;;;;12.57;10.45;;;9.20;99.90;;;;;;4896337;29;20025;-84
2021/04/14 09:45:25;;;;;;;11.48;10.27;;;9.50;99.90;;;;;;4897263;29;20097;-84
2021/04/14 09:47:51;;;;;;;10.95;9.82;;;9.40;99.90;;;;;;4896846;29;20115;-84
2021/04/14 09:50:35;;;;;;;11.10;9.68;;;9.70;99.90;;;;;;4896683;29;20032;-84
2021/04/14 09:53:19;;;;;;;11.63;10.43;;;9.90;99.90;;;;;;4896460;29;20048;-84
2021/04/14 09:55:47;;;;;;;12.02;10.63;;;9.80;99.90;;;;;;4894562;29;20554;-84
2021/04/14 09:58:24;;;;;;;10.73;9.65;;;9.70;99.90;;;;;;4897641;29;20031;-84
2021/04/14 10:00:54;;;;;;;11.27;10.00;;;9.90;99.90;;;;;;4897035;29;20057;-84
2021/04/14 10:03:25;;;;;;;10.18;8.93;;;9.80;99.90;;;;;;4896140;29;20047;-84
2021/04/14 10:05:53;;;;;;;11.73;9.98;;;9.70;99.90;;;;;;4896002;29;20036;-84
2021/04/14 10:08:19;;;;;;;10.55;9.45;;;10.20;99.90;;;;;;4883733;29;20587;-84
2021/04/14 10:10:47;;;;;;;10.27;9.18;;;10.20;99.90;;;;;;4896831;29;20052;-84
2021/04/14 10:13:17;;;;;;;10.70;9.18;;;11.10;99.90;;;;;;4896775;29;20029;-84
2021/04/14 10:15:45;;;;;;;8.75;7.85;;;10.90;99.90;;;;;;4896360;29;20337;-84
2021/04/14 10:18:25;;;;;;;9.18;8.27;;;11.00;99.90;;;;;;4896289;29;20111;-84
2021/04/14 10:20:52;;;;;;;9.07;7.25;;;11.50;99.90;;;;;;4897180;29;20554;-84
2021/04/14 10:23:26;;;;;;;8.57;7.40;;;13.00;99.90;;;;;;4896541;29;20044;-84
2021/04/14 10:26:05;;;;;;;7.95;6.75;;;16.70;99.90;;;;;;4896345;29;20390;-84
2021/04/14 10:28:31;;;;;;;8.10;6.90;;;20.70;99.90;;;;;;4896715;29;20017;-84
2021/04/14 10:31:04;;;;;;;8.18;7.40;;;22.00;99.90;;;;;;4896218;29;20490;-84
2021/04/14 10:33:29;;;;;;;9.73;7.45;;;24.30;99.90;;;;;;4895841;29;20040;-84
2021/04/14 10:35:55;;;;;;;9.88;8.88;;;24.60;99.90;;;;;;4895505;29;20028;-84
2021/04/14 10:38:32;;;;;;;9.07;7.95;;;25.70;99.90;;;;;;4895929;29;20032;-82
2021/04/14 10:40:58;;;;;;;9.70;8.20;;;26.80;99.90;;;;;;4896414;29;20029;-82
2021/04/14 10:43:27;;;;;;;9.32;8.52;;;26.20;99.90;;;;;;4896743;29;20036;-82
2021/04/14 10:46:06;;;;;;;10.13;9.13;;;24.70;99.90;;;;;;4895833;29;20412;-83
2021/04/14 10:48:37;;;;;;;9.82;9.02;;;24.10;99.90;;;;;;4895564;29;20517;-87
2021/04/14 10:51:10;;;;;;;10.38;9.38;;;24.70;99.90;;;;;;4895963;29;20036;-82
2021/04/14 10:53:39;;;;;;;10.77;9.73;;;26.20;99.90;;;;;;4895470;29;20048;-87
2021/04/14 10:56:20;;;;;;;11.55;10.55;;;27.30;99.90;;;;;;4881119;29;20511;-84
2021/04/14 10:58:46;;;;;;;11.52;10.50;;;25.80;99.90;;;;;;4896803;29;20379;-83
2021/04/14 11:01:16;;;;;;;10.45;9.48;;;25.40;99.90;;;;;;4895698;29;20600;-83
2021/04/14 11:03:50;;;;;;;10.48;9.50;;;27.80;99.90;;;;;;4895113;29;20037;-83
2021/04/14 11:06:19;;;;;;;11.02;10.07;;;27.90;99.90;;;;;;4894684;29;20028;-86
2021/04/14 11:08:45;;;;;;;11.60;10.20;;;26.70;99.90;;;;;;4894957;29;20032;-83
2021/04/14 11:11:13;;;;;;;10.27;9.32;;;28.40;99.90;;;;;;4896138;29;20044;-84
2021/04/14 11:13:42;;;;;;;11.05;9.43;;;30.20;99.90;;;;;;4895729;29;20020;-86
2021/04/14 11:16:11;;;;;;;10.82;9.93;;;29.90;99.90;;;;;;4895817;29;20033;-83
2021/04/14 11:18:41;;;;;;;10.13;9.23;;;28.80;99.90;;;;;;4895696;29;20024;-84
2021/04/14 11:21:22;;;;;;;9.57;8.77;;;27.80;99.90;;;;;;4894994;29;20021;-86
2021/04/14 11:23:47;;;;;;;9.90;9.05;;;27.80;99.90;;;;;;4895336;29;20051;-85
2021/04/14 11:26:17;;;;;;;9.95;9.00;;;27.20;99.90;;;;;;4896161;29;20033;-86
2021/04/14 11:28:50;;;;;;;10.30;9.48;;;28.70;99.90;;;;;;4895152;29;20455;-89
2021/04/14 11:31:40;;;;;;;11.02;10.02;;;30.90;99.90;;;;;;4901368;29;20036;-87
2021/04/14 11:34:24;;;;;;;10.93;9.93;;;28.70;99.90;;;;;;4902768;29;20455;-86
2021/04/14 11:37:27;;;;;;;10.25;9.35;;;28.60;99.90;;;;;;4902016;29;20028;-88
2021/04/14 11:39:57;;;;;;;9.80;9.00;;;27.60;99.90;;;;;;4896395;29;20460;-85
2021/04/14 11:42:25;;;;;;;10.48;9.57;;;28.10;99.90;;;;;;4903117;29;20033;-85
2021/04/14 11:44:53;;;;;;;10.68;9.73;;;23.40;99.90;;;;;;4901449;29;20474;-86
2021/04/14 11:47:25;;;;;;;9.90;9.00;;;24.50;99.90;;;;;;4901446;29;20028;-86
2021/04/14 11:49:51;;;;;;;9.63;8.73;;;28.50;99.90;;;;;;4900346;29;20505;-85
2021/04/14 11:52:35;;;;;;;9.48;8.45;;;29.60;99.90;;;;;;4904594;29;20401;-86
2021/04/14 11:55:19;;;;;;;10.23;9.25;;;28.40;99.90;;;;;;4901905;29;20032;-86
2021/04/14 11:57:46;;;;;;;10.05;9.05;;;29.00;99.90;;;;;;4903076;29;20032;-87
2021/04/14 12:00:31;;;;;;;9.63;8.82;;;29.10;99.90;;;;;;4902925;29;20370;-87
2021/04/14 12:03:01;;;;;;;9.07;8.27;;;25.80;99.90;;;;;;4901506;29;20039;-87
2021/04/14 12:05:27;;;;;;;8.98;8.27;;;23.00;99.90;;;;;;4900985;29;20514;-84
2021/04/14 12:07:53;;;;;;;8.75;7.85;;;28.50;99.90;;;;;;4904236;29;20020;-85
2021/04/14 12:10:19;;;;;;;9.90;8.90;;;30.30;99.90;;;;;;4905169;29;20039;-86
2021/04/14 12:12:45;;;;;;;8.70;7.90;;;30.00;99.90;;;;;;4902360;29;20107;-84
2021/04/14 12:15:11;;;;;;;9.02;8.13;;;30.10;99.90;;;;;;4902837;29;20036;-87
2021/04/14 12:17:37;;;;;;;8.90;8.02;;;31.00;99.90;;;;;;4903469;29;20056;-88
2021/04/14 12:20:04;;;;;;;8.77;8.02;;;29.60;99.90;;;;;;4898338;29;20068;-88
2021/04/14 12:22:32;;;;;;;8.75;8.00;;;27.10;99.90;;;;;;4898895;29;20108;-88
2021/04/14 12:24:58;;;;;;;8.55;7.78;;;26.30;99.90;;;;;;4898626;29;20075;-89
2021/04/14 12:27:24;;;;;;;8.98;8.07;;;27.00;99.90;;;;;;4897837;29;20035;-89
2021/04/14 12:29:50;;;;;;;7.82;7.13;;;24.10;99.90;;;;;;4898279;29;20119;-88
2021/04/14 12:32:16;;;;;;;8.63;7.82;;;23.10;99.90;;;;;;4898293;29;20032;-88
2021/04/14 12:34:41;;;;;;;8.38;7.57;;;22.10;99.90;;;;;;4897955;29;20505;-88
2021/04/14 12:37:07;;;;;;;8.43;7.45;;;21.50;99.90;;;;;;4899265;29;20051;-89
2021/04/14 12:39:32;;;;;;;9.73;8.88;;;20.70;99.90;;;;;;4898347;29;20406;-89
2021/04/14 12:41:58;;;;;;;8.82;7.97;;;20.20;99.90;;;;;;4897601;29;20037;-88
2021/04/14 12:44:24;;;;;;;7.38;6.78;;;23.60;99.90;;;;;;4898592;29;20123;-89
2021/04/14 12:46:51;;;;;;;7.78;7.18;;;27.80;99.90;;;;;;4898066;29;20040;-89
2021/04/14 12:49:20;;;;;;;7.80;7.03;;;29.50;99.90;;;;;;4898724;29;20063;-88
2021/04/14 12:51:56;;;;;;;8.07;7.38;;;29.40;99.90;;;;;;4897962;29;20028;-88
2021/04/14 12:54:24;;;;;;;7.60;6.93;;;28.60;99.90;;;;;;4911040;29;20053;-88
2021/04/14 12:56:54;;;;;;;7.15;6.55;;;28.00;99.90;;;;;;4912414;29;20042;-89
2021/04/14 12:59:27;;;;;;;7.38;6.72;;;28.60;99.90;;;;;;4897864;29;20040;-88
2021/04/14 13:02:02;;;;;;;7.63;6.88;;;29.70;99.90;;;;;;4898090;29;20064;-89
2021/04/14 13:04:41;;;;;;;8.93;6.85;;;29.00;99.90;;;;;;4898273;29;20044;-89